createdAt,value
2019-05-21T00:02:11.789Z,12.05
2019-05-21T00:04:39.405Z,12.02
2019-05-21T00:07:07.140Z,11.99
2019-05-21T00:09:34.197Z,11.99
2019-05-21T00:12:01.310Z,12.03
2019-05-21T00:14:28.663Z,12.02
2019-05-21T00:16:55.735Z,11.98
2019-05-21T00:19:22.812Z,12.05
2019-05-21T00:21:49.874Z,11.97
2019-05-21T00:24:17.055Z,11.98
2019-05-21T00:26:44.148Z,11.98
2019-05-21T00:29:47.656Z,11.96
2019-05-21T00:32:51.402Z,11.95
2019-05-21T00:35:55.506Z,11.98
2019-05-21T00:38:59.469Z,11.95
2019-05-21T00:42:03.344Z,11.96
2019-05-21T00:44:36.906Z,11.95
2019-05-21T00:47:05.535Z,11.96
2019-05-21T00:49:32.687Z,11.93
2019-05-21T00:52:08.454Z,11.94
2019-05-21T00:54:35.474Z,11.95
2019-05-21T00:57:02.642Z,11.96
2019-05-21T00:59:29.692Z,11.97
2019-05-21T01:01:56.776Z,11.96
2019-05-21T01:04:23.839Z,11.98
2019-05-21T01:06:53.634Z,11.97
2019-05-21T01:09:20.765Z,11.96
2019-05-21T01:11:47.820Z,11.94
2019-05-21T01:14:14.875Z,11.97
2019-05-21T01:16:41.969Z,11.98
2019-05-21T01:19:09.023Z,11.96
2019-05-21T01:21:36.102Z,11.93
2019-05-21T01:24:03.327Z,11.93
2019-05-21T01:26:36.647Z,11.90
2019-05-21T01:29:06.484Z,11.91
2019-05-21T01:31:33.645Z,11.93
2019-05-21T01:34:00.716Z,11.93
2019-05-21T01:36:30.058Z,11.91
2019-05-21T01:38:57.103Z,11.92
2019-05-21T01:41:25.752Z,11.95
2019-05-21T01:43:52.961Z,11.96
2019-05-21T01:46:21.629Z,11.95
2019-05-21T01:48:52.808Z,11.93
2019-05-21T01:51:20.044Z,11.97
2019-05-21T01:53:47.146Z,11.98
2019-05-21T01:56:14.305Z,11.97
2019-05-21T01:58:41.398Z,12.01
2019-05-21T02:01:10.236Z,12.00
2019-05-21T02:03:37.303Z,11.99
2019-05-21T02:06:04.395Z,11.97
2019-05-21T02:08:31.458Z,11.96
2019-05-21T02:10:58.524Z,11.98
2019-05-21T02:13:25.883Z,11.96
2019-05-21T02:15:52.949Z,12.03
2019-05-21T02:18:20.023Z,12.00
2019-05-21T02:20:48.285Z,12.01
2019-05-21T02:23:15.339Z,11.98
2019-05-21T02:25:42.436Z,12.02
2019-05-21T02:28:09.492Z,11.99
2019-05-21T02:30:36.579Z,11.98
2019-05-21T02:33:03.652Z,11.99
2019-05-21T02:35:30.766Z,11.97
2019-05-21T02:37:58.019Z,12.00
2019-05-21T02:40:25.077Z,12.01
2019-05-21T02:42:52.342Z,12.02
2019-05-21T02:45:19.531Z,12.02
2019-05-21T02:47:46.628Z,12.03
2019-05-21T02:50:14.182Z,12.01
2019-05-21T02:52:41.287Z,12.00
2019-05-21T02:55:09.047Z,12.03
2019-05-21T02:57:42.169Z,12.03
2019-05-21T03:00:31.569Z,12.02
2019-05-21T03:02:58.808Z,12.02
2019-05-21T03:05:25.842Z,12.06
2019-05-21T03:07:52.944Z,12.03
2019-05-21T03:10:19.991Z,12.05
2019-05-21T03:12:47.047Z,12.05
2019-05-21T03:15:14.134Z,12.07
2019-05-21T03:17:41.222Z,12.06
2019-05-21T03:20:10.074Z,12.04
2019-05-21T03:22:37.201Z,12.07
2019-05-21T03:25:05.296Z,12.08
2019-05-21T03:27:32.360Z,12.08
2019-05-21T03:29:59.439Z,12.06
2019-05-21T03:32:26.493Z,12.05
2019-05-21T03:34:55.947Z,12.04
2019-05-21T03:37:24.934Z,12.06
2019-05-21T03:39:52.252Z,12.06
2019-05-21T03:42:19.303Z,12.07
2019-05-21T03:44:58.965Z,12.04
2019-05-21T03:47:15.491Z,12.04
2019-05-21T03:50:02.219Z,12.05
2019-05-21T03:52:29.303Z,12.04
2019-05-21T03:54:56.358Z,12.06
2019-05-21T03:57:23.460Z,12.11
2019-05-21T03:59:50.596Z,12.08
2019-05-21T04:02:17.646Z,12.05
2019-05-21T04:04:44.747Z,12.05
2019-05-21T04:07:11.820Z,12.09
2019-05-21T04:09:38.900Z,12.08
2019-05-21T04:12:05.984Z,12.07
2019-05-21T04:14:40.932Z,12.10
2019-05-21T04:17:25.303Z,12.06
2019-05-21T04:19:52.357Z,12.06
2019-05-21T04:22:19.543Z,12.12
2019-05-21T04:24:46.630Z,12.12
2019-05-21T04:27:14.002Z,12.07
2019-05-21T04:29:41.063Z,12.06
2019-05-21T04:32:08.154Z,12.09
2019-05-21T04:34:35.216Z,12.09
2019-05-21T04:37:10.981Z,12.12
2019-05-21T04:39:31.286Z,12.10
2019-05-21T04:41:58.348Z,12.10
2019-05-21T04:44:25.472Z,12.14
2019-05-21T04:46:53.589Z,12.14
2019-05-21T04:49:20.665Z,12.15
2019-05-21T04:51:47.754Z,12.15
2019-05-21T04:54:14.865Z,12.13
2019-05-21T04:56:41.940Z,12.16
2019-05-21T04:59:09.135Z,12.17
2019-05-21T05:01:36.312Z,12.16
2019-05-21T05:04:03.392Z,12.19
2019-05-21T05:06:30.591Z,12.19
2019-05-21T05:08:59.452Z,12.20
2019-05-21T05:11:26.510Z,12.21
2019-05-21T05:13:53.813Z,12.23
2019-05-21T05:16:21.964Z,12.22
2019-05-21T05:18:49.276Z,12.21
2019-05-21T05:21:16.378Z,12.21
2019-05-21T05:23:43.466Z,12.21
2019-05-21T05:26:10.523Z,12.25
2019-05-21T05:28:37.624Z,12.23
2019-05-21T05:31:04.745Z,12.21
2019-05-21T05:33:31.908Z,12.22
2019-05-21T05:36:00.818Z,12.15
2019-05-21T05:38:27.890Z,12.08
2019-05-21T05:40:54.956Z,12.08
2019-05-21T05:43:22.105Z,12.01
2019-05-21T05:45:49.243Z,12.04
2019-05-21T05:48:16.791Z,11.99
2019-05-21T05:50:46.156Z,11.91
2019-05-21T05:53:13.341Z,11.89
2019-05-21T05:55:41.505Z,11.89
2019-05-21T05:58:09.835Z,11.86
2019-05-21T06:00:37.315Z,11.86
2019-05-21T06:03:04.518Z,11.82
2019-05-21T06:05:31.653Z,11.86
2019-05-21T06:08:00.342Z,11.79
2019-05-21T06:10:27.715Z,11.80
2019-05-21T06:12:54.852Z,11.76
2019-05-21T06:15:23.133Z,11.73
2019-05-21T06:17:50.225Z,11.73
2019-05-21T06:20:18.499Z,11.75
2019-05-21T06:22:45.689Z,11.75
2019-05-21T06:25:13.364Z,11.84
2019-05-21T06:27:40.535Z,11.78
2019-05-21T06:30:08.137Z,11.80
2019-05-21T06:32:35.127Z,11.76
2019-05-21T06:35:02.113Z,11.78
2019-05-21T06:37:29.048Z,11.83
2019-05-21T06:39:56.036Z,11.76
2019-05-21T06:42:23.021Z,11.79
2019-05-21T06:44:51.417Z,11.84
2019-05-21T06:47:18.402Z,11.77
2019-05-21T06:49:45.392Z,11.77
2019-05-21T06:52:12.370Z,11.80
2019-05-21T06:54:39.328Z,11.80
2019-05-21T06:57:06.318Z,11.82
2019-05-21T06:59:33.287Z,11.80
2019-05-21T07:02:00.246Z,11.78
2019-05-21T07:04:27.228Z,11.80
2019-05-21T07:06:54.167Z,11.79
2019-05-21T07:09:21.127Z,11.78
2019-05-21T07:11:48.250Z,11.77
2019-05-21T07:14:15.230Z,11.77
2019-05-21T07:16:42.181Z,11.82
2019-05-21T07:19:09.171Z,11.80
2019-05-21T07:21:36.160Z,11.76
2019-05-21T07:24:03.230Z,11.78
2019-05-21T07:26:30.240Z,11.91
2019-05-21T07:28:57.538Z,11.83
2019-05-21T07:31:24.592Z,11.82
2019-05-21T07:33:51.645Z,11.80
2019-05-21T07:36:18.628Z,11.92
2019-05-21T07:38:53.099Z,11.83
2019-05-21T07:41:15.340Z,11.81
2019-05-21T07:43:42.339Z,11.83
2019-05-21T07:46:09.267Z,11.88
2019-05-21T07:48:36.260Z,11.84
2019-05-21T07:51:03.283Z,11.82
2019-05-21T07:53:30.300Z,11.81
2019-05-21T07:55:58.900Z,11.84
2019-05-21T07:58:25.862Z,11.84
2019-05-21T08:00:52.800Z,11.87
2019-05-21T08:03:19.773Z,11.89
2019-05-21T08:05:46.708Z,11.96
2019-05-21T08:08:13.651Z,11.89
2019-05-21T08:10:40.646Z,11.91
2019-05-21T08:13:07.694Z,12.00
2019-05-21T08:15:34.628Z,11.95
2019-05-21T08:18:01.608Z,11.97
2019-05-21T08:20:28.909Z,12.03
2019-05-21T08:22:55.852Z,12.01
2019-05-21T08:25:22.823Z,12.05
2019-05-21T08:27:50.028Z,12.12
2019-05-21T08:30:17.088Z,12.09
2019-05-21T08:32:44.268Z,12.11
2019-05-21T08:35:11.705Z,12.10
2019-05-21T08:37:38.643Z,12.11
2019-05-21T08:40:06.055Z,12.14
2019-05-21T08:42:33.119Z,12.17
2019-05-21T08:45:00.217Z,12.20
2019-05-21T08:47:27.325Z,12.26
2019-05-21T08:49:54.261Z,12.31
2019-05-21T08:52:21.247Z,12.30
2019-05-21T08:54:50.990Z,12.35
2019-05-21T08:57:18.396Z,12.34
2019-05-21T08:59:45.665Z,12.38
2019-05-21T09:02:12.902Z,12.34
2019-05-21T09:04:46.339Z,12.33
2019-05-21T09:07:08.911Z,12.35
2019-05-21T09:09:49.399Z,12.37
2019-05-21T09:12:06.761Z,12.44
2019-05-21T09:14:34.975Z,12.35
2019-05-21T09:17:01.935Z,12.40
2019-05-21T09:19:28.898Z,12.34
2019-05-21T09:21:55.879Z,12.39
2019-05-21T09:24:24.769Z,12.41
2019-05-21T09:26:52.934Z,12.42
2019-05-21T09:29:22.342Z,12.41
2019-05-21T09:31:49.425Z,12.43
2019-05-21T09:34:16.395Z,12.43
2019-05-21T09:36:43.336Z,12.53
2019-05-21T09:39:10.297Z,12.47
2019-05-21T09:41:37.283Z,12.53
2019-05-21T09:44:04.222Z,12.52
2019-05-21T09:46:31.192Z,12.56
2019-05-21T09:48:59.205Z,12.59
2019-05-21T09:51:26.186Z,12.55
2019-05-21T09:53:53.291Z,12.56
2019-05-21T09:56:32.859Z,12.62
2019-05-21T09:59:05.999Z,12.63
2019-05-21T10:01:39.739Z,12.60
2019-05-21T10:04:06.698Z,12.65
2019-05-21T10:06:33.783Z,12.66
2019-05-21T10:09:00.846Z,12.63
2019-05-21T10:11:27.843Z,12.63
2019-05-21T10:13:56.538Z,12.56
2019-05-21T10:16:23.503Z,12.60
2019-05-21T10:18:52.276Z,12.53
2019-05-21T10:21:19.353Z,12.61
2019-05-21T10:23:48.294Z,12.58
2019-05-21T10:26:15.255Z,12.56
2019-05-21T10:28:42.258Z,12.54
2019-05-21T10:31:09.227Z,12.58
2019-05-21T10:33:36.155Z,12.65
2019-05-21T10:36:04.983Z,12.64
2019-05-21T10:38:31.932Z,12.65
2019-05-21T10:40:58.901Z,12.68
2019-05-21T10:43:25.922Z,12.69
2019-05-21T10:45:53.023Z,12.69
2019-05-21T10:48:19.958Z,12.76
2019-05-21T10:50:47.034Z,12.80
2019-05-21T10:53:14.293Z,12.85
2019-05-21T10:55:41.348Z,12.86
2019-05-21T10:58:08.302Z,12.88
2019-05-21T11:00:35.435Z,12.86
2019-05-21T11:03:07.422Z,12.85
2019-05-21T11:05:36.593Z,12.83
2019-05-21T11:08:22.989Z,12.79
2019-05-21T11:10:34.341Z,12.76
2019-05-21T11:13:01.324Z,12.82
2019-05-21T11:15:28.465Z,12.82
2019-05-21T11:18:09.528Z,12.81
2019-05-21T11:20:24.290Z,12.78
2019-05-21T11:22:58.513Z,12.79
2019-05-21T11:25:25.625Z,12.83
2019-05-21T11:27:52.582Z,12.76
2019-05-21T11:30:19.996Z,12.86
2019-05-21T11:32:48.046Z,12.77
2019-05-21T11:35:17.791Z,12.82
2019-05-21T11:37:47.817Z,12.81
2019-05-21T11:40:15.858Z,12.81
2019-05-21T11:42:42.838Z,12.81
2019-05-21T11:45:09.820Z,12.81
2019-05-21T11:47:36.792Z,12.85
2019-05-21T11:50:07.615Z,12.90
2019-05-21T11:52:34.581Z,13.00
2019-05-21T11:55:01.634Z,12.91
2019-05-21T11:57:28.680Z,13.02
2019-05-21T11:59:55.661Z,12.89
2019-05-21T12:02:22.610Z,12.88
2019-05-21T12:04:49.586Z,12.96
2019-05-21T12:07:16.631Z,12.90
2019-05-21T12:09:43.630Z,12.90
2019-05-21T12:12:10.611Z,12.92
2019-05-21T12:14:37.565Z,12.91
2019-05-21T12:17:04.913Z,12.98
2019-05-21T12:19:32.002Z,13.01
2019-05-21T12:21:58.953Z,12.98
2019-05-21T12:24:27.586Z,13.01
2019-05-21T12:26:54.815Z,13.02
2019-05-21T12:29:21.765Z,13.12
2019-05-21T12:31:48.757Z,13.12
2019-05-21T12:34:15.708Z,13.23
2019-05-21T12:36:42.667Z,13.14
2019-05-21T12:39:14.251Z,13.12
2019-05-21T12:41:38.578Z,13.13
2019-05-21T12:44:05.689Z,13.19
2019-05-21T12:46:32.650Z,13.20
2019-05-21T12:48:59.783Z,13.26
2019-05-21T12:51:26.804Z,13.20
2019-05-21T12:53:53.963Z,13.22
2019-05-21T12:56:20.971Z,13.23
2019-05-21T12:58:47.999Z,13.27
2019-05-21T13:01:14.977Z,13.33
2019-05-21T13:03:41.966Z,13.40
2019-05-21T13:06:08.934Z,13.34
2019-05-21T13:08:35.891Z,13.41
2019-05-21T13:11:03.193Z,13.35
2019-05-21T13:13:30.210Z,13.35
2019-05-21T13:15:57.151Z,13.36
2019-05-21T13:18:24.441Z,13.36
2019-05-21T13:20:51.389Z,13.40
2019-05-21T13:23:18.322Z,13.45
2019-05-21T13:25:45.293Z,13.44
2019-05-21T13:28:12.231Z,13.47
2019-05-21T13:30:39.316Z,13.55
2019-05-21T13:33:06.314Z,13.60
2019-05-21T13:35:35.598Z,13.60
2019-05-21T13:38:02.551Z,13.62
2019-05-21T13:40:30.940Z,13.64
2019-05-21T13:42:58.360Z,13.61
2019-05-21T13:45:25.323Z,13.63
2019-05-21T13:47:52.307Z,13.65
2019-05-21T13:50:19.263Z,13.67
2019-05-21T13:52:46.436Z,13.68
2019-05-21T13:55:13.642Z,13.66
2019-05-21T13:57:41.013Z,13.68
2019-05-21T14:00:13.174Z,13.65
2019-05-21T14:02:40.284Z,13.65
2019-05-21T14:05:08.593Z,13.72
2019-05-21T14:07:35.531Z,13.67
2019-05-21T14:10:13.931Z,13.70
2019-05-21T14:12:39.140Z,13.67
2019-05-21T14:15:06.410Z,13.68
2019-05-21T14:17:33.360Z,13.62
2019-05-21T14:20:00.336Z,13.68
2019-05-21T14:22:27.307Z,13.64
2019-05-21T14:24:54.316Z,13.67
2019-05-21T14:27:21.268Z,13.70
2019-05-21T14:29:50.701Z,13.78
2019-05-21T14:32:17.681Z,13.75
2019-05-21T14:35:00.265Z,13.78
2019-05-21T14:37:14.041Z,13.78
2019-05-21T14:39:41.200Z,13.81
2019-05-21T14:42:08.436Z,13.82
2019-05-21T14:44:35.619Z,13.88
2019-05-21T14:47:02.913Z,13.79
2019-05-21T14:49:30.102Z,13.78
2019-05-21T14:51:57.256Z,13.79
2019-05-21T14:54:26.955Z,13.75
2019-05-21T14:56:53.414Z,13.77
2019-05-21T14:59:20.408Z,13.80
2019-05-21T15:01:47.398Z,13.77
2019-05-21T15:04:14.538Z,13.77
2019-05-21T15:06:41.791Z,13.77
2019-05-21T15:09:08.763Z,13.80
2019-05-21T15:11:37.586Z,13.73
2019-05-21T15:14:04.574Z,13.74
2019-05-21T15:16:31.579Z,13.70
2019-05-21T15:18:58.563Z,13.71
2019-05-21T15:21:30.012Z,13.72
2019-05-21T15:23:57.163Z,13.68
2019-05-21T15:26:24.568Z,13.71
2019-05-21T15:28:51.547Z,13.70
2019-05-21T15:31:26.015Z,13.69
2019-05-21T15:33:53.292Z,13.76
2019-05-21T15:36:20.223Z,13.74
2019-05-21T15:38:50.734Z,13.71
2019-05-21T15:41:17.729Z,13.67
2019-05-21T15:43:46.054Z,13.62
2019-05-21T15:46:13.021Z,13.61
2019-05-21T15:48:40.032Z,13.63
2019-05-21T15:51:07.378Z,13.62
2019-05-21T15:53:34.348Z,13.68
2019-05-21T15:56:01.325Z,13.67
2019-05-21T15:58:28.286Z,13.66
2019-05-21T16:00:55.279Z,13.63
2019-05-21T16:03:22.230Z,13.61
2019-05-21T16:05:49.273Z,13.63
2019-05-21T16:08:16.257Z,13.60
2019-05-21T16:10:43.355Z,13.63
2019-05-21T16:13:10.459Z,13.68
2019-05-21T16:15:37.469Z,13.69
2019-05-21T16:18:04.483Z,13.68
2019-05-21T16:20:31.448Z,13.75
2019-05-21T16:22:58.575Z,13.78
2019-05-21T16:25:25.518Z,13.81
2019-05-21T16:27:52.522Z,13.86
2019-05-21T16:30:19.547Z,13.86
2019-05-21T16:32:46.604Z,13.88
2019-05-21T16:35:13.783Z,13.87
2019-05-21T16:37:40.868Z,13.88
2019-05-21T16:40:08.924Z,13.88
2019-05-21T16:42:37.512Z,13.85
2019-05-21T16:45:04.943Z,13.88
2019-05-21T16:47:44.362Z,13.90
2019-05-21T16:50:04.574Z,13.82
2019-05-21T16:52:33.650Z,13.86
2019-05-21T16:55:00.735Z,13.77
2019-05-21T16:57:27.796Z,13.70
2019-05-21T16:59:54.754Z,13.70
2019-05-21T17:02:21.715Z,13.66
2019-05-21T17:04:48.766Z,13.70
2019-05-21T17:07:15.844Z,13.70
2019-05-21T17:09:42.826Z,13.70
2019-05-21T17:12:09.917Z,13.73
2019-05-21T17:14:37.997Z,13.76
2019-05-21T17:17:05.109Z,13.76
2019-05-21T17:19:33.719Z,13.80
2019-05-21T17:22:19.279Z,13.78
2019-05-21T17:24:46.303Z,13.78
2019-05-21T17:27:13.262Z,13.78
2019-05-21T17:29:40.223Z,13.78
2019-05-21T17:32:10.356Z,13.82
2019-05-21T17:34:37.515Z,13.87
2019-05-21T17:37:05.612Z,13.87
2019-05-21T17:39:32.561Z,13.83
2019-05-21T17:42:13.265Z,13.85
2019-05-21T17:44:28.560Z,13.87
2019-05-21T17:46:55.609Z,13.88
2019-05-21T17:49:22.593Z,13.93
2019-05-21T17:51:49.564Z,13.93
2019-05-21T17:54:16.547Z,13.91
2019-05-21T17:56:43.624Z,13.94
2019-05-21T17:59:14.736Z,13.86
2019-05-21T18:01:42.114Z,13.81
2019-05-21T18:04:09.487Z,13.82
2019-05-21T18:06:37.415Z,13.80
2019-05-21T18:09:08.436Z,13.80
2019-05-21T18:11:35.521Z,13.80
2019-05-21T18:14:03.249Z,13.75
2019-05-21T18:16:30.960Z,13.69
2019-05-21T18:18:58.179Z,13.68
2019-05-21T18:21:25.956Z,13.70
2019-05-21T18:23:52.956Z,13.63
2019-05-21T18:26:19.992Z,13.64
2019-05-21T18:28:46.929Z,13.57
2019-05-21T18:31:14.214Z,13.49
2019-05-21T18:33:41.736Z,13.47
2019-05-21T18:36:08.730Z,13.41
2019-05-21T18:38:37.504Z,13.36
2019-05-21T18:41:04.512Z,13.32
2019-05-21T18:43:31.460Z,13.34
2019-05-21T18:45:58.455Z,13.39
2019-05-21T18:48:25.488Z,13.23
2019-05-21T18:50:55.432Z,13.21
2019-05-21T18:53:25.014Z,13.17
2019-05-21T18:55:52.118Z,13.11
2019-05-21T18:58:19.175Z,13.11
2019-05-21T19:00:46.353Z,13.04
2019-05-21T19:03:13.563Z,12.99
2019-05-21T19:05:40.713Z,12.99
2019-05-21T19:08:07.785Z,12.99
2019-05-21T19:10:34.796Z,12.97
2019-05-21T19:13:01.901Z,12.94
2019-05-21T19:15:29.049Z,12.95
2019-05-21T19:17:56.238Z,12.94
2019-05-21T19:20:23.373Z,12.96
2019-05-21T19:22:50.401Z,12.90
2019-05-21T19:25:17.546Z,12.89
2019-05-21T19:27:44.521Z,12.86
2019-05-21T19:30:13.508Z,12.86
2019-05-21T19:32:40.520Z,12.83
2019-05-21T19:35:08.740Z,12.82
2019-05-21T19:37:37.516Z,12.75
2019-05-21T19:40:05.189Z,12.70
2019-05-21T19:42:32.187Z,12.67
2019-05-21T19:44:59.186Z,12.69
2019-05-21T19:47:26.403Z,12.64
2019-05-21T19:49:53.393Z,12.60
2019-05-21T19:52:22.651Z,12.68
2019-05-21T19:54:49.659Z,12.58
2019-05-21T19:57:19.340Z,12.65
2019-05-21T19:59:46.446Z,12.58
2019-05-21T20:02:14.155Z,12.55
2019-05-21T20:04:42.240Z,12.59
2019-05-21T20:07:13.437Z,12.52
2019-05-21T20:09:41.766Z,12.52
2019-05-21T20:12:09.155Z,12.49
2019-05-21T20:14:36.230Z,12.45
2019-05-21T20:17:04.026Z,12.47
2019-05-21T20:19:31.557Z,12.46
2019-05-21T20:21:58.533Z,12.45
2019-05-21T20:24:26.055Z,12.49
2019-05-21T20:26:53.653Z,12.45
2019-05-21T20:29:21.332Z,12.45
2019-05-21T20:31:48.689Z,12.43
2019-05-21T20:34:17.506Z,12.44
2019-05-21T20:36:45.589Z,12.40
2019-05-21T20:39:15.848Z,12.37
2019-05-21T20:41:43.531Z,12.37
2019-05-21T20:44:13.730Z,12.34
2019-05-21T20:46:41.291Z,12.35
2019-05-21T20:49:09.629Z,12.32
2019-05-21T20:51:37.557Z,12.37
2019-05-21T20:54:05.428Z,12.31
2019-05-21T20:56:33.450Z,12.30
2019-05-21T20:59:00.441Z,12.31
2019-05-21T21:01:27.555Z,12.31
2019-05-21T21:03:55.241Z,12.28
2019-05-21T21:06:34.747Z,12.26
2019-05-21T21:08:51.724Z,12.26
2019-05-21T21:11:18.821Z,12.28
2019-05-21T21:13:47.846Z,12.19
2019-05-21T21:16:17.310Z,12.17
2019-05-21T21:18:44.551Z,12.18
2019-05-21T21:21:11.818Z,12.10
2019-05-21T21:23:40.169Z,12.09
2019-05-21T21:26:08.295Z,12.12
2019-05-21T21:28:35.429Z,12.14
2019-05-21T21:31:02.903Z,12.09
2019-05-21T21:33:30.131Z,12.03
2019-05-21T21:35:57.223Z,12.09
2019-05-21T21:38:26.672Z,12.02
2019-05-21T21:40:53.870Z,11.99
2019-05-21T21:43:22.407Z,11.98
2019-05-21T21:45:49.718Z,11.99
2019-05-21T21:48:17.045Z,11.96
2019-05-21T21:50:44.277Z,11.98
2019-05-21T21:53:11.478Z,11.97
2019-05-21T21:55:38.492Z,11.94
2019-05-21T21:58:05.601Z,11.98
2019-05-21T22:01:23.826Z,11.94
2019-05-21T22:03:51.253Z,11.96
2019-05-21T22:06:19.733Z,11.94
2019-05-21T22:08:46.947Z,11.94
2019-05-21T22:11:16.625Z,11.95
2019-05-21T22:13:44.949Z,11.93
2019-05-21T22:16:12.182Z,11.92
2019-05-21T22:18:39.655Z,11.98
2019-05-21T22:21:07.672Z,11.93
2019-05-21T22:23:35.268Z,11.86
2019-05-21T22:26:02.244Z,11.85
2019-05-21T22:28:29.513Z,11.85
2019-05-21T22:30:56.635Z,11.91
2019-05-21T22:33:23.798Z,11.91
2019-05-21T22:35:50.820Z,11.93
2019-05-21T22:38:17.839Z,11.85
2019-05-21T22:40:44.854Z,11.84
2019-05-21T22:43:13.187Z,11.83
2019-05-21T22:45:40.350Z,11.90
2019-05-21T22:48:07.406Z,11.84
2019-05-21T22:50:36.192Z,11.90
2019-05-21T22:53:03.491Z,11.91
2019-05-21T22:55:30.458Z,11.83
2019-05-21T22:57:58.874Z,11.86
2019-05-21T23:00:27.020Z,11.80
2019-05-21T23:02:54.724Z,11.79
2019-05-21T23:05:23.112Z,11.77
2019-05-21T23:07:50.384Z,11.78
2019-05-21T23:10:17.956Z,11.79
2019-05-21T23:12:44.973Z,11.77
2019-05-21T23:15:24.538Z,11.83
2019-05-21T23:17:42.193Z,11.76
2019-05-21T23:20:11.672Z,11.76
2019-05-21T23:22:39.876Z,11.70
2019-05-21T23:25:07.241Z,11.69
2019-05-21T23:27:34.590Z,11.71
2019-05-21T23:30:02.660Z,11.66
2019-05-21T23:32:31.685Z,11.66
2019-05-21T23:34:59.065Z,11.65
2019-05-21T23:37:26.657Z,11.65
2019-05-21T23:39:55.222Z,11.65
2019-05-21T23:42:29.544Z,11.68
2019-05-21T23:44:52.474Z,11.70
2019-05-21T23:47:20.042Z,11.67
2019-05-21T23:49:47.002Z,11.58
2019-05-21T23:52:14.196Z,11.59
2019-05-21T23:54:41.196Z,11.55
2019-05-21T23:57:11.009Z,11.54
2019-05-21T23:59:39.908Z,11.55
